Time;durP1;ratioP1;P1;durP2;ratioP2;P2;SDS_P1;SDS_P2;PMS_P1;PMS_P2;Temp;Humidity;BMP_temperature;BMP_pressure;BME280_temperature;BME280_humidity;BME280_pressure;Samples;Min_cycle;Max_cycle;Signal;HPM_P1;HPM_P2
2022/06/06 00:01:38;;;;;;;76.73;30.00;;;;;;;-145.18;80.20;46629.13;5032733;28;20044;-73
2022/06/06 00:04:03;;;;;;;78.73;30.93;;;;;;;-145.18;80.16;46627.19;5032958;28;20132;-73
2022/06/06 00:06:29;;;;;;;86.03;32.63;;;;;;;-145.18;80.25;46627.19;5032699;28;20057;-73
2022/06/06 00:08:54;;;;;;;80.43;31.80;;;;;;;-145.18;80.30;46629.13;5015261;28;20077;-73
2022/06/06 00:11:19;;;;;;;77.93;31.33;;;;;;;-145.18;80.39;46631.09;5032567;28;20030;-73
2022/06/06 00:13:46;;;;;;;71.43;28.60;;;;;;;-145.18;80.56;46627.19;5033188;28;20036;-73
2022/06/06 00:16:11;;;;;;;78.03;29.60;;;;;;;-145.18;80.75;46631.09;5032370;28;20112;-73
2022/06/06 00:18:38;;;;;;;70.30;28.60;;;;;;;-145.18;80.91;46631.09;5015191;28;20125;-73
2022/06/06 00:21:07;;;;;;;73.93;30.80;;;;;;;-145.18;81.04;46633.06;5032913;28;20033;-73
2022/06/06 00:23:32;;;;;;;68.57;29.40;;;;;;;-145.18;81.27;46633.06;5032887;28;20060;-73
2022/06/06 00:25:58;;;;;;;77.10;30.77;;;;;;;-145.18;81.57;46633.06;5032743;28;20061;-73
2022/06/06 00:28:23;;;;;;;68.77;28.43;;;;;;;-145.18;81.87;46629.13;5032166;28;20033;-72
2022/06/06 00:30:56;;;;;;;66.97;27.93;;;;;;;-145.18;82.02;46633.06;5032894;28;20108;-73
2022/06/06 00:36:05;;;;;;;61.73;26.23;;;;;;;-145.18;82.95;46633.06;5032791;28;20037;-73
2022/06/06 00:38:31;;;;;;;61.40;26.93;;;;;;;-145.18;83.40;46633.06;5031861;28;20029;-73
2022/06/06 00:40:57;;;;;;;65.37;27.27;;;;;;;-145.18;83.84;46633.06;5032760;28;20037;-73
2022/06/06 00:43:23;;;;;;;59.67;27.83;;;;;;;-145.18;84.14;46633.06;5031881;28;20035;-73
2022/06/06 00:45:56;;;;;;;67.93;26.43;;;;;;;-145.18;84.65;46635.00;5032731;28;20037;-73
2022/06/06 00:48:24;;;;;;;55.90;24.33;;;;;;;-145.18;85.28;46635.00;5031656;28;20485;-73
2022/06/06 00:51:07;;;;;;;59.57;25.33;;;;;;;-145.18;85.86;46631.09;5032395;28;20036;-73
2022/06/06 00:53:44;;;;;;;59.47;24.03;;;;;;;-145.18;86.46;46635.00;5032012;28;20079;-73
2022/06/06 00:56:21;;;;;;;52.83;23.53;;;;;;;-145.18;87.12;46636.94;5032180;28;20498;-73
2022/06/06 00:58:53;;;;;;;50.77;24.63;;;;;;;-145.18;88.08;46635.00;5032004;28;20056;-73
2022/06/06 01:01:20;;;;;;;57.67;25.07;;;;;;;-145.18;88.89;46636.94;5030464;28;20389;-73
2022/06/06 01:03:46;;;;;;;52.47;24.93;;;;;;;-145.18;89.58;46635.00;5031637;28;20041;-73
2022/06/06 01:06:15;;;;;;;59.73;27.63;;;;;;;-145.18;90.28;46635.00;5031924;28;20153;-73
2022/06/06 01:08:44;;;;;;;55.47;23.90;;;;;;;-145.18;91.08;46636.94;5031815;28;20037;-73
2022/06/06 01:11:10;;;;;;;59.20;24.90;;;;;;;-145.18;91.76;46636.94;5031858;28;20060;-73
2022/06/06 01:13:39;;;;;;;54.60;25.13;;;;;;;-145.18;92.83;46636.94;5031586;28;20478;-73
2022/06/06 01:16:23;;;;;;;64.47;25.63;;;;;;;-145.18;93.95;46640.88;5032051;28;20087;-73
2022/06/06 01:19:09;;;;;;;62.33;24.93;;;;;;;-145.18;94.82;46638.91;5031890;28;20496;-73
2022/06/06 01:22:03;;;;;;;57.77;26.47;;;;;;;-145.18;95.64;46638.91;5031324;28;20159;-73
2022/06/06 01:24:56;;;;;;;60.17;25.23;;;;;;;-145.18;96.64;46638.91;5031568;28;20053;-73
2022/06/06 01:27:33;;;;;;;50.27;24.23;;;;;;;-145.18;97.88;46640.88;5029850;28;20437;-73
2022/06/06 01:30:04;;;;;;;61.17;25.60;;;;;;;-145.18;99.12;46638.91;5031613;28;20486;-73
2022/06/06 01:32:37;;;;;;;61.17;27.00;;;;;;;-145.18;99.54;46640.88;5030930;28;20037;-73
2022/06/06 01:35:04;;;;;;;64.60;27.40;;;;;;;-145.18;100.00;46642.81;5031622;28;20040;-73
2022/06/06 01:37:40;;;;;;;64.23;27.10;;;;;;;-145.18;100.00;46642.81;5030819;28;20056;-72
2022/06/06 01:40:09;;;;;;;65.77;26.00;;;;;;;-145.18;100.00;46640.88;5031152;28;20045;-73
2022/06/06 01:43:09;;;;;;;60.30;25.27;;;;;;;-145.18;100.00;46636.94;5031007;28;20038;-73
2022/06/06 01:45:41;;;;;;;61.57;25.53;;;;;;;-145.18;100.00;46652.59;5031267;28;20693;-73
2022/06/06 01:48:14;;;;;;;62.73;25.37;;;;;;;-145.18;100.00;46642.81;5030852;28;20490;-73
2022/06/06 01:50:42;;;;;;;67.87;26.93;;;;;;;-145.18;100.00;46640.88;5029995;28;20117;-73
2022/06/06 01:53:14;;;;;;;62.93;25.77;;;;;;;-145.18;100.00;46650.63;5030833;28;20390;-73
2022/06/06 01:55:44;;;;;;;60.13;26.37;;;;;;;-145.18;100.00;46640.88;5031175;28;20548;-73
2022/06/06 01:58:30;;;;;;;65.30;25.67;;;;;;;-145.18;100.00;46642.81;5030608;28;20033;-73
2022/06/06 02:03:32;;;;;;;58.97;25.67;;;;;;;-145.18;100.00;46650.63;5009237;23;20046;-73
2022/06/06 02:05:57;;;;;;;60.87;25.57;;;;;;;-145.18;100.00;46652.59;5004490;28;20030;-73
2022/06/06 02:08:23;;;;;;;64.53;27.10;;;;;;;-145.18;100.00;46642.81;5010698;28;20030;-73
2022/06/06 02:10:48;;;;;;;61.60;25.17;;;;;;;-145.18;100.00;46650.63;5010922;28;20060;-73
2022/06/06 02:13:14;;;;;;;63.60;27.40;;;;;;;-145.18;100.00;46640.88;5010296;28;20037;-73
2022/06/06 02:15:40;;;;;;;64.77;27.53;;;;;;;-145.18;100.00;46640.88;5010906;28;20109;-72
2022/06/06 02:18:06;;;;;;;64.03;27.07;;;;;;;-145.18;100.00;46640.88;5008106;28;20498;-72
2022/06/06 02:20:32;;;;;;;62.27;27.20;;;;;;;-145.18;100.00;46640.88;5011021;28;20029;-72
2022/06/06 02:22:58;;;;;;;65.47;27.63;;;;;;;-145.18;100.00;46650.63;5010495;28;20049;-72
2022/06/06 02:25:25;;;;;;;67.53;26.80;;;;;;;-145.18;100.00;46638.91;5011216;28;20087;-72
2022/06/06 02:27:52;;;;;;;61.23;24.80;;;;;;;-145.18;100.00;46642.81;5010186;28;20105;-73
2022/06/06 02:30:21;;;;;;;68.03;26.77;;;;;;;-145.18;100.00;46652.59;5011047;28;20038;-73
2022/06/06 02:32:46;;;;;;;61.70;26.13;;;;;;;-145.18;100.00;46640.88;5010751;28;20040;-72
2022/06/06 02:35:16;;;;;;;55.73;23.40;;;;;;;-145.18;100.00;46642.81;5010657;28;20426;-73
2022/06/06 02:37:41;;;;;;;66.93;26.57;;;;;;;-145.18;100.00;46652.59;5010265;28;20022;-73
2022/06/06 02:40:09;;;;;;;71.43;26.97;;;;;;;-145.18;100.00;46640.88;5010518;28;20030;-73
2022/06/06 02:42:35;;;;;;;76.27;30.17;;;;;;;-145.18;100.00;46642.81;5010208;28;20083;-73
2022/06/06 02:45:02;;;;;;;69.83;26.67;;;;;;;-145.18;100.00;46640.88;5010599;28;20477;-73
2022/06/06 02:47:28;;;;;;;62.00;25.77;;;;;;;-145.18;99.45;46640.88;5010601;28;20092;-73
2022/06/06 02:49:54;;;;;;;64.53;25.87;;;;;;;-145.18;98.63;46640.88;5010519;28;20111;-73
2022/06/06 02:52:20;;;;;;;64.27;25.67;;;;;;;-145.18;97.92;46650.63;5010170;28;20482;-73
2022/06/06 02:54:45;;;;;;;71.07;27.60;;;;;;;-145.18;97.69;46640.88;5010609;28;20034;-72
2022/06/06 02:57:11;;;;;;;73.47;29.70;;;;;;;-145.18;97.13;46650.63;5010120;28;20109;-72
2022/06/06 02:59:38;;;;;;;87.73;35.43;;;;;;;-145.18;96.67;46636.94;5010634;28;20112;-72
2022/06/06 03:02:03;;;;;;;92.20;38.00;;;;;;;-145.18;96.23;46652.59;5009732;28;20033;-73
2022/06/06 03:04:30;;;;;;;98.50;41.07;;;;;;;-145.18;96.41;46640.88;5010462;28;20422;-73
2022/06/06 03:07:11;;;;;;;100.23;42.67;;;;;;;-145.18;96.39;46642.81;5010185;28;20045;-73
2022/06/06 03:09:58;;;;;;;96.87;44.47;;;;;;;-145.18;96.60;46652.59;5010547;28;20784;-73
2022/06/06 03:12:48;;;;;;;102.20;41.67;;;;;;;-145.18;96.51;46642.81;5009827;28;20037;-73
2022/06/06 03:21:43;;;;;;;85.20;37.90;;;;;;;-145.18;99.45;46638.91;5030317;28;20033;-74
2022/06/06 03:24:15;;;;;;;93.83;39.93;;;;;;;-145.18;100.00;46638.91;5029566;28;20044;-73
2022/06/06 03:27:19;;;;;;;86.47;38.40;;;;;;;-145.18;100.00;46652.59;5030038;28;20082;-73
2022/06/06 03:29:53;;;;;;;82.23;37.40;;;;;;;-145.18;100.00;46640.88;5033136;28;20405;-73
2022/06/06 03:32:39;;;;;;;80.60;36.47;;;;;;;-145.18;100.00;46652.59;5033728;28;20026;-73
2022/06/06 03:35:34;;;;;;;72.10;34.27;;;;;;;-145.18;100.00;46652.59;5033482;28;20034;-73
2022/06/06 03:38:14;;;;;;;79.00;36.90;;;;;;;-145.18;100.00;46650.63;5033196;28;20024;-73
2022/06/06 03:41:28;;;;;;;68.10;32.73;;;;;;;-145.18;100.00;46652.59;5033695;28;20051;-73
2022/06/06 03:44:06;;;;;;;71.60;33.67;;;;;;;-145.18;100.00;46650.63;4952132;28;20050;-73
2022/06/06 03:46:51;;;;;;;52.90;30.00;;;;;;;-145.18;100.00;46650.63;5030685;28;20037;-73
2022/06/06 03:50:01;;;;;;;63.27;34.77;;;;;;;-145.18;100.00;46642.81;5025319;28;20040;-74
2022/06/06 03:52:40;;;;;;;60.83;31.73;;;;;;;-145.18;100.00;46642.81;4979484;28;20053;-73
2022/06/06 03:55:27;;;;;;;65.43;33.03;;;;;;;-145.18;100.00;46654.53;5033174;28;20037;-73
2022/06/06 03:57:54;;;;;;;66.77;33.20;;;;;;;-145.18;100.00;46656.50;5019328;28;20079;-73
2022/06/06 04:00:21;;;;;;;60.67;30.87;;;;;;;-145.18;100.00;46656.50;5033246;28;20037;-74
2022/06/06 04:02:48;;;;;;;58.40;31.33;;;;;;;-145.18;100.00;46652.59;5032493;28;20061;-74
2022/06/06 04:05:17;;;;;;;61.03;32.73;;;;;;;-145.18;100.00;46656.50;5024528;28;20087;-73
2022/06/06 04:07:43;;;;;;;56.23;31.00;;;;;;;-145.18;100.00;46654.53;5031893;28;20046;-74
2022/06/06 04:10:10;;;;;;;60.83;31.40;;;;;;;-145.18;100.00;46650.63;5032300;28;20041;-74
2022/06/06 04:13:05;;;;;;;53.33;30.63;;;;;;;-145.18;100.00;46652.59;5031682;28;20028;-74
2022/06/06 04:15:46;;;;;;;52.23;29.73;;;;;;;-145.18;100.00;46656.50;5031007;28;20040;-73
2022/06/06 04:18:14;;;;;;;51.53;29.27;;;;;;;-145.18;100.00;46660.41;5020036;28;20039;-73
2022/06/06 04:21:07;;;;;;;48.80;27.73;;;;;;;-145.18;100.00;46652.59;5028322;28;20034;-73
2022/06/06 04:24:13;;;;;;;46.67;27.63;;;;;;;-145.18;100.00;46660.41;5040764;28;20039;-73
2022/06/06 04:26:54;;;;;;;43.55;26.38;;;;;;;-145.18;100.00;46658.44;5022301;28;20061;-74
2022/06/06 04:29:29;;;;;;;52.77;28.10;;;;;;;-145.18;100.00;46660.41;5035416;28;20033;-73
2022/06/06 04:31:59;;;;;;;48.03;28.10;;;;;;;-145.18;100.00;46660.41;5029789;28;20108;-73
2022/06/06 04:34:39;;;;;;;46.13;27.47;;;;;;;-145.18;100.00;46660.41;5028664;28;20095;-73
2022/06/06 04:37:14;;;;;;;45.73;26.90;;;;;;;-145.18;100.00;46660.41;5029219;28;20021;-73
2022/06/06 04:39:50;;;;;;;50.65;25.27;;;;;;;-145.18;100.00;46660.41;5030975;28;20018;-73
2022/06/06 04:42:46;;;;;;;43.17;24.83;;;;;;;-145.18;100.00;46660.41;5035671;28;20031;-73
2022/06/06 04:45:11;;;;;;;43.45;25.38;;;;;;;-145.18;100.00;46658.44;5051707;28;20033;-73
2022/06/06 04:47:39;;;;;;;35.43;21.80;;;;;;;-145.18;100.00;46660.41;5047066;28;20036;-73
2022/06/06 04:50:17;;;;;;;36.90;21.70;;;;;;;-145.18;100.00;46660.41;5034063;28;20057;-73
2022/06/06 04:52:54;;;;;;;32.80;20.93;;;;;;;-145.18;100.00;46660.41;5051632;28;20753;-73
2022/06/06 04:55:22;;;;;;;31.40;19.63;;;;;;;-145.18;100.00;46625.22;5052018;28;20090;-73
2022/06/06 04:57:51;;;;;;;33.20;18.27;;;;;;;-145.18;100.00;46625.22;5051824;28;20537;-73
2022/06/06 05:00:17;;;;;;;29.80;17.87;;;;;;;-145.18;100.00;46660.41;5051948;28;20033;-73
2022/06/06 05:02:43;;;;;;;24.40;15.90;;;;;;;-145.18;100.00;46621.31;5051242;28;20807;-73
2022/06/06 05:05:09;;;;;;;27.97;16.67;;;;;;;-145.18;100.00;46625.22;5051733;28;20029;-73
2022/06/06 05:08:18;;;;;;;29.70;18.97;;;;;;;-145.18;100.00;46629.13;5051214;28;20037;-74
2022/06/06 05:11:04;;;;;;;33.20;19.20;;;;;;;-145.18;100.00;46633.06;5035302;28;20629;-73
2022/06/06 05:13:36;;;;;;;26.80;17.25;;;;;;;-145.18;100.00;46625.22;5051445;28;20021;-76
2022/06/06 05:16:19;;;;;;;26.03;15.27;;;;;;;-145.18;100.00;46631.09;5043236;28;20083;-73
2022/06/06 05:18:54;;;;;;;20.50;12.93;;;;;;;-145.18;100.00;46625.22;5031116;28;20033;-73
2022/06/06 05:21:32;;;;;;;33.00;15.20;;;;;;;-145.18;100.00;46631.09;5013445;28;20029;-73
2022/06/06 05:24:30;;;;;;;24.13;14.00;;;;;;;-145.18;100.00;46631.09;5011379;28;20025;-74
2022/06/06 05:27:09;;;;;;;28.77;16.33;;;;;;;-145.18;100.00;46631.09;5011578;28;20034;-73
2022/06/06 05:29:43;;;;;;;23.87;14.93;;;;;;;-145.18;100.00;46627.19;5011209;28;20445;-73
2022/06/06 05:32:26;;;;;;;24.27;14.13;;;;;;;-145.18;100.00;46635.00;5011543;28;20116;-74
2022/06/06 05:35:24;;;;;;;25.60;14.53;;;;;;;-145.18;100.00;46631.09;5024798;28;20048;-73
2022/06/06 05:38:18;;;;;;;25.80;12.57;;;;;;;-145.18;100.00;46635.00;4979777;28;20051;-74
2022/06/06 05:41:05;;;;;;;19.00;12.97;;;;;;;-145.18;100.00;46631.09;5030025;28;20029;-74
2022/06/06 05:44:07;;;;;;;18.90;13.47;;;;;;;-145.18;100.00;46635.00;5025169;28;20095;-74
2022/06/06 05:46:45;;;;;;;21.73;13.73;;;;;;;-145.18;100.00;46635.00;5000831;28;20476;-74
2022/06/06 05:49:28;;;;;;;22.07;14.17;;;;;;;-145.18;100.00;46631.09;5029922;28;20041;-74
2022/06/06 05:52:15;;;;;;;18.43;13.80;;;;;;;-145.18;100.00;46635.00;5029693;28;20029;-75
2022/06/06 05:54:52;;;;;;;24.17;14.43;;;;;;;-145.18;100.00;46640.88;5030872;28;20030;-75
2022/06/06 05:57:38;;;;;;;20.20;14.23;;;;;;;-145.18;100.00;46635.00;5031116;28;20040;-75
2022/06/06 06:00:19;;;;;;;24.40;15.37;;;;;;;-145.18;100.00;46636.94;5030768;28;20041;-75
2022/06/06 06:02:47;;;;;;;23.43;14.03;;;;;;;-145.18;100.00;46636.94;5030194;28;20144;-75
2022/06/06 06:05:37;;;;;;;21.20;13.63;;;;;;;-145.18;100.00;46636.94;5022633;28;20029;-75
2022/06/06 06:09:00;;;;;;;21.73;14.13;;;;;;;-145.18;100.00;46640.88;5029002;28;20662;-75
2022/06/06 06:11:37;;;;;;;17.53;13.50;;;;;;;-145.18;100.00;46638.91;4987361;28;20124;-75
2022/06/06 06:14:15;;;;;;;18.17;13.00;;;;;;;-145.18;100.00;46640.88;5010169;28;20030;-75
2022/06/06 06:16:53;;;;;;;20.37;12.97;;;;;;;-145.18;100.00;46640.88;5009058;28;20030;-74
2022/06/06 06:19:24;;;;;;;22.07;12.73;;;;;;;-145.18;100.00;46642.81;5003333;28;20359;-74
2022/06/06 06:21:54;;;;;;;18.77;12.13;;;;;;;-145.18;100.00;46646.72;5010074;28;20014;-74
2022/06/06 06:24:26;;;;;;;16.63;11.80;;;;;;;-145.18;100.00;46648.69;5010393;28;20029;-74
2022/06/06 06:26:54;;;;;;;13.70;10.47;;;;;;;-145.18;100.00;46648.69;5009226;28;20040;-74
2022/06/06 06:29:20;;;;;;;15.10;11.37;;;;;;;-145.18;100.00;46648.69;5009103;28;20482;-74
2022/06/06 06:32:14;;;;;;;16.27;10.23;;;;;;;-145.18;100.00;46652.59;5009818;28;20040;-74
2022/06/06 06:35:04;;;;;;;20.27;11.23;;;;;;;-145.18;100.00;46652.59;4992943;28;20124;-74
2022/06/06 06:37:51;;;;;;;16.03;11.73;;;;;;;-145.18;100.00;46650.63;5010348;28;20030;-74
2022/06/06 06:40:46;;;;;;;19.17;11.67;;;;;;;-145.18;100.00;46656.50;5010088;28;20037;-74
2022/06/06 06:43:32;;;;;;;16.20;9.93;;;;;;;-145.18;100.00;46660.41;4974237;28;20045;-74
2022/06/06 06:46:01;;;;;;;13.93;10.43;;;;;;;-145.18;100.00;46660.41;5010237;28;20033;-74
2022/06/06 06:48:36;;;;;;;16.43;9.33;;;;;;;-145.18;100.00;46664.31;5010152;28;20080;-74
2022/06/06 06:51:11;;;;;;;15.60;10.25;;;;;;;-145.18;100.00;46664.31;5010148;28;20036;-73
2022/06/06 06:54:01;;;;;;;10.98;8.73;;;;;;;-145.18;100.00;46672.13;5017191;28;20100;-73
2022/06/06 06:56:32;;;;;;;11.80;8.50;;;;;;;-145.18;100.00;46672.13;5022906;28;20505;-74
2022/06/06 06:59:38;;;;;;;13.20;7.63;;;;;;;-145.18;100.00;46676.03;5019104;28;20021;-74
2022/06/06 07:08:48;;;;;;;15.80;6.40;;;;;;;-145.18;100.00;46672.13;4979047;28;20064;-73
2022/06/06 07:11:34;;;;;;;10.90;6.50;;;;;;;-145.18;100.00;46674.06;5020851;28;20117;-73
2022/06/06 07:14:23;;;;;;;11.00;6.70;;;;;;;-145.18;100.00;46676.03;5013514;28;20407;-73
2022/06/06 07:16:55;;;;;;;9.33;6.00;;;;;;;-145.18;100.00;46672.13;5014281;28;20461;-73
2022/06/06 07:19:28;;;;;;;11.23;6.00;;;;;;;-145.18;100.00;46674.06;5013839;28;20026;-73
2022/06/06 07:21:57;;;;;;;9.53;5.70;;;;;;;-145.18;100.00;46658.44;5013863;28;20034;-73
2022/06/06 07:24:23;;;;;;;9.03;5.50;;;;;;;-145.18;100.00;46652.59;5013546;28;20489;-73
2022/06/06 07:26:49;;;;;;;9.40;5.80;;;;;;;-145.18;100.00;46652.59;5013655;28;20041;-73
2022/06/06 07:29:18;;;;;;;11.77;5.63;;;;;;;-145.18;100.00;46648.69;5015533;28;20112;-73
2022/06/06 07:32:14;;;;;;;8.77;5.70;;;;;;;-145.18;100.00;46625.22;5018814;28;20088;-73
2022/06/06 07:35:00;;;;;;;15.82;6.03;;;;;;;-145.18;100.00;46603.75;5011878;28;20498;-73
2022/06/06 07:37:41;;;;;;;8.80;5.35;;;;;;;-145.18;100.00;46586.16;5013434;28;20033;-73
2022/06/06 07:40:25;;;;;;;9.50;4.83;;;;;;;-145.18;100.00;46558.81;5012922;28;20044;-73
2022/06/06 07:43:21;;;;;;;7.40;4.47;;;;;;;-145.18;100.00;46554.91;5013124;28;20084;-73
2022/06/06 07:45:50;;;;;;;9.80;4.07;;;;;;;-145.18;100.00;46552.97;5013713;28;20022;-73
2022/06/06 07:48:36;;;;;;;7.60;3.97;;;;;;;-145.18;100.00;46566.63;5023406;28;20037;-73
2022/06/06 07:51:40;;;;;;;9.17;4.17;;;;;;;-145.18;100.00;46572.50;5024330;28;20025;-73
2022/06/06 07:54:23;;;;;;;7.63;4.07;;;;;;;-145.18;100.00;46593.97;5032360;28;20563;-73
2022/06/06 07:57:06;;;;;;;7.27;3.60;;;;;;;-145.18;100.00;46609.59;5022064;28;20034;-73
2022/06/06 07:59:38;;;;;;;6.13;3.53;;;;;;;-145.18;100.00;46593.97;5025960;28;20042;-73
2022/06/06 08:02:32;;;;;;;6.63;3.47;;;;;;;-145.18;100.00;46586.16;5032840;28;20041;-73
2022/06/06 08:05:12;;;;;;;7.87;3.40;;;;;;;-145.18;100.00;46572.50;4955540;28;20046;-73
2022/06/06 08:08:05;;;;;;;10.50;3.50;;;;;;;-145.18;100.00;46547.09;5013426;28;20038;-73
2022/06/06 08:10:42;;;;;;;4.87;2.60;;;;;;;-145.18;100.00;46552.97;5011891;28;20080;-73
2022/06/06 08:13:26;;;;;;;7.07;3.43;;;;;;;-145.18;100.00;46547.09;5010719;28;20029;-73
2022/06/06 08:16:28;;;;;;;5.63;3.07;;;;;;;-145.18;100.00;46562.72;5010892;28;20121;-73
2022/06/06 08:19:03;;;;;;;9.97;2.97;;;;;;;-145.18;100.00;46560.78;5011088;28;20032;-73
2022/06/06 08:21:35;;;;;;;6.00;2.80;;;;;;;-145.18;100.00;46556.88;5011369;28;20049;-73
2022/06/06 08:24:06;;;;;;;7.03;2.63;;;;;;;-145.18;100.00;46556.88;5011228;28;20041;-73
2022/06/06 08:26:36;;;;;;;4.37;2.50;;;;;;;-145.18;100.00;46554.91;5013002;28;20032;-73
2022/06/06 08:29:04;;;;;;;7.70;2.43;;;;;;;-145.18;100.00;46560.78;5012352;28;20042;-73
2022/06/06 08:31:29;;;;;;;4.90;2.40;;;;;;;-145.18;100.00;46554.91;5013146;28;20517;-73
2022/06/06 08:33:55;;;;;;;7.50;3.23;;;;;;;-145.18;100.00;46560.78;5012575;28;20109;-73
2022/06/06 08:36:41;;;;;;;10.23;2.40;;;;;;;-145.18;100.00;46566.63;5012645;28;20184;-73
2022/06/06 08:39:21;;;;;;;5.13;2.00;;;;;;;-145.18;100.00;46562.72;5012476;28;20664;-73
2022/06/06 08:42:17;;;;;;;5.17;2.63;;;;;;;-145.18;100.00;46582.25;5012887;28;20045;-73
2022/06/06 08:44:48;;;;;;;5.73;2.10;;;;;;;-145.18;100.00;46576.41;5012422;28;20037;-73
2022/06/06 08:47:28;;;;;;;8.00;2.40;;;;;;;-145.18;100.00;46580.31;5012465;28;20026;-73
2022/06/06 08:53:20;;;;;;;5.37;2.10;;;;;;;-145.18;100.00;46580.31;5012213;28;20041;-73
2022/06/06 08:56:07;;;;;;;3.93;2.00;;;;;;;-145.18;100.00;46574.44;5012596;28;20109;-73
2022/06/06 08:59:04;;;;;;;5.00;1.97;;;;;;;-145.18;100.00;46574.44;5012125;28;20037;-73
2022/06/06 09:01:32;;;;;;;;;;;;;;;-145.18;100.00;46574.44;5012928;28;20460;-73
2022/06/06 09:04:16;;;;;;;6.27;2.13;;;;;;;-145.18;100.00;46576.41;5011499;28;19924;-73
2022/06/06 09:07:18;;;;;;;3.33;2.33;;;;;;;-145.18;100.00;46572.50;5012263;28;20022;-73
2022/06/06 09:10:15;;;;;;;6.00;3.27;;;;;;;-145.18;100.00;46580.31;5011842;28;20053;-73
2022/06/06 09:13:05;;;;;;;6.75;2.10;;;;;;;-145.18;100.00;46603.75;5012241;28;20076;-73
2022/06/06 09:15:45;;;;;;;3.93;1.83;;;;;;;-145.18;100.00;46609.59;5012139;28;20045;-73
2022/06/06 09:18:29;;;;;;;5.07;1.70;;;;;;;-145.18;100.00;46599.84;5011471;28;20799;-73
2022/06/06 09:21:04;;;;;;;2.73;1.87;;;;;;;-145.18;100.00;46578.34;5011785;28;20644;-73
2022/06/06 09:23:59;;;;;;;5.70;1.70;;;;;;;-145.18;100.00;46568.59;5011701;28;20028;-73
2022/06/06 09:26:40;;;;;;;16.07;2.33;;;;;;;-145.18;100.00;46586.16;4971580;28;20049;-73
2022/06/06 09:29:26;;;;;;;7.80;2.43;;;;;;;-145.18;100.00;46609.59;5011023;28;20456;-73
2022/06/06 09:32:43;;;;;;;3.72;1.77;;;;;;;-145.18;100.00;46593.97;5011162;28;20114;-73
2022/06/06 09:35:24;;;;;;;4.57;1.65;;;;;;;-145.18;100.00;46603.75;5011134;28;20095;-73
2022/06/06 09:38:11;;;;;;;4.13;1.87;;;;;;;-145.18;100.00;46629.13;5011899;28;20109;-73
2022/06/06 09:41:04;;;;;;;5.20;1.80;;;;;;;-145.18;100.00;46644.78;5011314;28;20026;-73
2022/06/06 09:43:57;;;;;;;4.47;1.70;;;;;;;-145.18;100.00;46681.88;5011363;28;20121;-73
2022/06/06 09:46:47;;;;;;;3.60;1.70;;;;;;;-145.18;100.00;46590.06;5011653;28;20048;-73
2022/06/06 09:49:41;;;;;;;5.07;1.67;;;;;;;-145.18;100.00;46625.22;5030327;28;20037;-73
2022/06/06 09:52:32;;;;;;;6.77;2.20;;;;;;;-145.18;100.00;46652.59;5027422;28;20048;-73
2022/06/06 10:01:47;;;;;;;4.93;1.80;;;;;;;-145.18;100.00;46629.13;5025357;28;20060;-73
2022/06/06 10:04:50;;;;;;;5.87;2.20;;;;;;;-145.18;100.00;46607.66;5030031;28;20065;-73
2022/06/06 10:07:35;;;;;;;3.17;1.97;;;;;;;-145.18;100.00;46640.88;4950445;29;20106;-73
2022/06/06 10:10:22;;;;;;;4.70;1.40;;;;;;;-145.18;100.00;46656.50;4949391;29;20039;-73
2022/06/06 10:12:59;;;;;;;5.33;1.63;;;;;;;-145.18;100.00;46642.81;4998411;28;20136;-73
2022/06/06 10:15:46;;;;;;;4.20;2.03;;;;;;;-145.18;100.00;46611.56;5013107;28;20608;-73
2022/06/06 10:18:29;;;;;;;3.33;2.17;;;;;;;-145.18;100.00;46629.13;5017886;28;20061;-73
2022/06/06 10:21:13;;;;;;;4.33;2.10;;;;;;;-145.18;100.00;46652.59;5030612;28;20037;-73
2022/06/06 10:24:03;;;;;;;4.40;2.07;;;;;;;-145.18;100.00;46869.41;5012407;28;20038;-73
2022/06/06 10:26:59;;;;;;;3.87;1.73;;;;;;;-145.18;100.00;46816.66;5030547;28;20489;-73
2022/06/06 10:33:08;;;;;;;3.53;1.83;;;;;;;-145.18;100.00;46863.53;5030664;28;20048;-73
2022/06/06 10:36:11;;;;;;;6.60;1.67;;;;;;;-145.18;100.00;46738.53;5030010;28;20072;-73
2022/06/06 10:38:54;;;;;;;3.53;1.50;;;;;;;-145.18;100.00;46707.28;5029423;28;20038;-73
2022/06/06 10:41:36;;;;;;;7.33;2.43;;;;;;;-145.18;100.00;46638.91;5030485;28;20028;-73
2022/06/06 10:44:24;;;;;;;1.70;1.40;;;;;;;-145.18;100.00;46617.41;5029957;28;20030;-73
2022/06/06 10:46:52;;;;;;;6.13;1.90;;;;;;;-145.18;100.00;46593.97;5015912;28;20032;-73
2022/06/06 10:49:44;;;;;;;4.10;2.00;;;;;;;-145.18;100.00;46574.44;5010184;28;20033;-73
2022/06/06 10:52:35;;;;;;;4.57;2.00;;;;;;;-145.18;100.00;46562.72;5000746;28;20513;-73
2022/06/06 10:55:27;;;;;;;7.40;2.30;;;;;;;-145.18;100.00;46558.81;5018913;28;20576;-73
2022/06/06 10:58:07;;;;;;;2.90;1.90;;;;;;;-145.18;100.00;46572.50;5029394;28;20124;-73
2022/06/06 11:01:11;;;;;;;6.93;2.47;;;;;;;-145.18;100.00;46582.25;5027884;28;20151;-73
2022/06/06 11:03:52;;;;;;;2.57;2.20;;;;;;;-145.18;100.00;46593.97;5029277;28;20057;-72
2022/06/06 11:06:41;;;;;;;7.33;2.23;;;;;;;-145.18;100.00;46574.44;5029692;28;20481;-73
2022/06/06 11:09:29;;;;;;;4.23;1.87;;;;;;;-145.18;100.00;46564.69;5028134;28;20439;-73
2022/06/06 11:12:12;;;;;;;4.00;2.23;;;;;;;-145.18;100.00;46593.97;5029559;28;20231;-73
2022/06/06 11:14:40;;;;;;;3.83;1.90;;;;;;;-145.18;100.00;46601.78;5029623;28;20397;-73
2022/06/06 11:17:34;;;;;;;4.93;2.23;;;;;;;-145.18;100.00;46611.56;5029415;28;20033;-73
2022/06/06 11:20:33;;;;;;;6.73;2.30;;;;;;;-145.18;100.00;46592.03;5029114;28;20084;-73
2022/06/06 11:23:28;;;;;;;4.53;2.10;;;;;;;-145.18;100.00;46582.25;5029919;28;20048;-72
2022/06/06 11:26:24;;;;;;;4.90;1.80;;;;;;;-145.18;100.00;46592.03;5029237;28;20033;-73
2022/06/06 11:28:52;;;;;;;4.68;2.03;;;;;;;-145.18;100.00;46572.50;5029211;28;20068;-73
2022/06/06 11:31:48;;;;;;;6.00;2.00;;;;;;;-145.18;100.00;46576.41;5020981;28;20022;-73
2022/06/06 11:34:44;;;;;;;2.28;1.70;;;;;;;-145.18;100.00;46578.34;5012649;28;20056;-73
2022/06/06 11:37:34;;;;;;;3.90;2.22;;;;;;;-145.18;100.00;46566.63;5029629;28;20087;-74
2022/06/06 11:40:25;;;;;;;5.10;2.00;;;;;;;-145.18;100.00;46584.22;5029116;28;20033;-73
2022/06/06 11:42:51;;;;;;;2.77;1.77;;;;;;;-145.18;100.00;46631.09;5029100;28;20030;-73
2022/06/06 11:46:02;;;;;;;3.43;2.20;;;;;;;-145.18;100.00;46666.25;5028413;28;20025;-73
2022/06/06 11:49:08;;;;;;;7.07;2.33;;;;;;;-145.18;100.00;46676.03;5030265;28;20068;-71
2022/06/06 11:51:52;;;;;;;6.97;3.13;;;;;;;-145.18;100.00;46679.94;4953197;28;20045;-72
2022/06/06 11:54:48;;;;;;;5.77;2.97;;;;;;;-145.18;100.00;46677.97;5032241;28;20025;-73
2022/06/06 11:57:42;;;;;;;4.40;2.97;;;;;;;-145.18;100.00;46677.97;5032805;28;20112;-73
2022/06/06 12:00:18;;;;;;;7.47;2.70;;;;;;;-145.18;100.00;46676.03;5032280;28;20055;-73
2022/06/06 12:03:06;;;;;;;4.57;2.70;;;;;;;-145.18;100.00;46679.94;5025965;28;20037;-72
2022/06/06 12:05:56;;;;;;;7.67;2.90;;;;;;;-145.18;100.00;46672.13;5030913;28;20032;-73
2022/06/06 12:08:30;;;;;;;6.47;3.73;;;;;;;-145.18;100.00;46681.88;5022154;28;20032;-73
2022/06/06 12:11:01;;;;;;;5.20;2.90;;;;;;;-145.18;100.00;46677.97;5020387;28;20029;-73
2022/06/06 12:14:10;;;;;;;7.10;2.63;;;;;;;-145.18;100.00;46685.78;5023397;28;20401;-73
2022/06/06 12:16:46;;;;;;;6.30;2.53;;;;;;;-145.18;100.00;46681.88;5027492;28;20046;-73
2022/06/06 12:19:49;;;;;;;5.30;3.10;;;;;;;-145.18;100.00;46672.13;5032038;28;20076;-73
2022/06/06 12:22:35;;;;;;;8.50;3.07;;;;;;;-145.18;100.00;46664.31;5032128;28;20080;-73
2022/06/06 12:25:06;;;;;;;6.20;3.75;;;;;;;-145.18;100.00;46656.50;5031937;28;20432;-72
2022/06/06 12:28:06;;;;;;;4.87;3.57;;;;;;;-145.18;100.00;46660.41;5031715;28;20032;-73
2022/06/06 12:30:53;;;;;;;5.27;3.43;;;;;;;-145.18;100.00;46652.59;5025427;28;20044;-72